Time;durP1;ratioP1;P1;durP2;ratioP2;P2;SDS_P1;SDS_P2;PMS_P1;PMS_P2;Temp;Humidity;BMP_temperature;BMP_pressure;BME280_temperature;BME280_humidity;BME280_pressure;Samples;Min_cycle;Max_cycle;Signal;HPM_P1;HPM_P2
2022/06/25 00:01:14;;;;;;;3.08;2.63;;;23.70;66.90;;;;;;10249574;28;20371;-63
2022/06/25 00:06:15;;;;;;;3.20;2.40;;;23.70;66.90;;;;;;10287716;28;20031;-63
2022/06/25 00:16:38;;;;;;;2.28;1.80;;;23.60;66.90;;;;;;10288291;28;20078;-63
2022/06/25 00:21:39;;;;;;;4.30;2.20;;;23.60;66.90;;;;;;10287018;28;20054;-63
2022/06/25 00:26:40;;;;;;;3.38;2.10;;;23.60;66.80;;;;;;10286486;28;20043;-64
2022/06/25 00:31:40;;;;;;;2.58;2.03;;;23.60;66.80;;;;;;10286346;28;20029;-63
2022/06/25 00:36:41;;;;;;;2.40;2.20;;;23.60;66.80;;;;;;10286829;28;20088;-64
2022/06/25 00:41:42;;;;;;;2.58;2.38;;;23.60;66.80;;;;;;10286296;28;20097;-63
2022/06/25 00:46:46;;;;;;;2.60;2.17;;;23.60;66.80;;;;;;10274890;28;20042;-64
2022/06/25 00:51:49;;;;;;;2.50;2.30;;;23.60;66.80;;;;;;10277467;28;20054;-64
2022/06/25 00:56:52;;;;;;;2.67;2.10;;;23.60;66.80;;;;;;10270430;28;20038;-64
2022/06/25 01:01:53;;;;;;;2.67;2.30;;;23.60;66.70;;;;;;10280056;28;20041;-64
2022/06/25 01:06:54;;;;;;;2.42;1.80;;;23.60;66.70;;;;;;10285931;28;20018;-63
2022/06/25 01:11:54;;;;;;;2.40;1.92;;;23.60;66.70;;;;;;10285395;28;20031;-63
2022/06/25 01:16:55;;;;;;;2.30;2.10;;;23.60;66.70;;;;;;10285278;28;20383;-63
2022/06/25 01:21:59;;;;;;;2.42;2.22;;;23.60;66.60;;;;;;10284454;28;20027;-63
2022/06/25 01:27:00;;;;;;;2.45;1.90;;;23.60;66.60;;;;;;10269445;28;20646;-64
2022/06/25 01:32:01;;;;;;;2.50;2.00;;;23.60;66.60;;;;;;10285889;28;20039;-64
2022/06/25 01:37:02;;;;;;;2.72;2.10;;;23.60;66.50;;;;;;10285289;28;20089;-64
2022/06/25 01:42:03;;;;;;;2.20;1.90;;;23.60;66.60;;;;;;10285094;28;20398;-65
2022/06/25 01:47:04;;;;;;;2.40;1.98;;;23.60;66.60;;;;;;10279739;28;20035;-64
2022/06/25 01:52:05;;;;;;;2.72;2.15;;;23.50;66.60;;;;;;10255798;28;20592;-63
2022/06/25 01:57:06;;;;;;;2.10;1.90;;;23.50;66.60;;;;;;10286075;28;20101;-63
2022/06/25 02:02:06;;;;;;;2.08;1.85;;;23.50;66.50;;;;;;10273678;28;20041;-63
2022/06/25 02:07:07;;;;;;;2.03;1.83;;;23.50;66.50;;;;;;10268647;28;20043;-64
2022/06/25 02:12:08;;;;;;;2.88;2.28;;;23.50;66.50;;;;;;10253950;28;20081;-63
2022/06/25 02:17:09;;;;;;;2.92;2.10;;;23.50;66.50;;;;;;10285531;28;20031;-63
2022/06/25 02:22:14;;;;;;;2.53;2.28;;;23.50;66.60;;;;;;10284017;28;20035;-63
2022/06/25 02:27:15;;;;;;;2.35;2.10;;;23.50;66.60;;;;;;10284334;28;20027;-64
2022/06/25 02:32:15;;;;;;;2.38;2.00;;;23.50;66.60;;;;;;10269903;28;20038;-64
2022/06/25 02:37:16;;;;;;;3.03;1.95;;;23.50;66.50;;;;;;10292616;28;20035;-64
2022/06/25 02:42:17;;;;;;;2.90;2.28;;;23.50;66.50;;;;;;10292205;28;20118;-64
2022/06/25 02:47:17;;;;;;;2.72;2.05;;;23.50;66.50;;;;;;10274539;28;20041;-64
2022/06/25 02:52:18;;;;;;;2.88;1.80;;;23.50;66.50;;;;;;10287697;28;20030;-64
2022/06/25 03:02:38;;;;;;;1.95;1.75;;;23.50;66.40;;;;;;10271618;28;20043;-64
2022/06/25 03:07:39;;;;;;;2.50;2.08;;;23.50;66.40;;;;;;10291098;28;20117;-64
2022/06/25 03:12:40;;;;;;;2.47;1.90;;;23.50;66.40;;;;;;10286593;28;20023;-63
2022/06/25 03:17:40;;;;;;;1.85;1.70;;;23.40;66.40;;;;;;10272536;28;20035;-63
2022/06/25 03:22:41;;;;;;;2.40;2.00;;;23.40;66.40;;;;;;10256217;28;20458;-63
2022/06/25 03:27:42;;;;;;;3.90;2.42;;;23.40;66.20;;;;;;10271043;28;20117;-63
2022/06/25 03:32:43;;;;;;;2.78;2.33;;;23.40;66.10;;;;;;10288695;28;20046;-64
2022/06/25 03:37:43;;;;;;;3.35;2.05;;;23.40;66.00;;;;;;10287041;28;20106;-63
2022/06/25 03:42:44;;;;;;;2.17;1.77;;;23.40;66.00;;;;;;10285087;28;20113;-65
2022/06/25 03:47:51;;;;;;;2.10;1.70;;;23.40;66.10;;;;;;10270181;28;20074;-64
2022/06/25 03:52:52;;;;;;;2.85;2.40;;;23.40;66.10;;;;;;10252559;28;20129;-64
2022/06/25 03:57:52;;;;;;;2.22;1.60;;;23.40;66.10;;;;;;10284243;28;20019;-64
2022/06/25 04:02:53;;;;;;;2.85;2.00;;;23.40;66.00;;;;;;10266720;28;20127;-63
2022/06/25 04:07:54;;;;;;;2.13;1.85;;;23.40;66.00;;;;;;10270580;28;20034;-64
2022/06/25 04:12:54;;;;;;;3.17;1.80;;;23.40;66.00;;;;;;10252094;28;20027;-64
2022/06/25 04:17:55;;;;;;;2.35;1.88;;;23.40;66.00;;;;;;10268795;28;20118;-63
2022/06/25 04:22:56;;;;;;;3.15;2.25;;;23.40;65.80;;;;;;10249946;28;20034;-63
2022/06/25 04:33:17;;;;;;;2.65;2.05;;;23.40;65.80;;;;;;10287030;28;20043;-63
2022/06/25 04:38:18;;;;;;;2.55;2.35;;;23.40;65.80;;;;;;10287801;28;20382;-63
2022/06/25 04:43:18;;;;;;;3.80;3.47;;;23.40;65.80;;;;;;10280611;28;20113;-63
2022/06/25 04:48:19;;;;;;;7.95;6.60;;;23.40;66.00;;;;;;10283428;28;20027;-63
2022/06/25 04:53:20;;;;;;;10.35;9.55;;;23.40;65.90;;;;;;10286687;28;20531;-63
2022/06/25 04:58:21;;;;;;;13.65;12.70;;;23.40;66.00;;;;;;10285945;28;20023;-64
2022/06/25 05:03:21;;;;;;;9.25;8.52;;;23.50;67.20;;;;;;10278411;28;20030;-63
2022/06/25 05:08:22;;;;;;;8.82;8.20;;;23.50;67.00;;;;;;10270041;28;20093;-63
2022/06/25 05:13:24;;;;;;;9.13;8.30;;;23.50;67.00;;;;;;10282938;28;20606;-64
2022/06/25 05:18:25;;;;;;;8.63;7.93;;;23.50;66.90;;;;;;10292462;28;20671;-62
2022/06/25 05:23:26;;;;;;;11.32;9.30;;;23.50;67.30;;;;;;10272928;28;20030;-61
2022/06/25 05:28:27;;;;;;;9.23;7.65;;;23.60;67.60;;;;;;10279966;28;20031;-63
2022/06/25 05:33:27;;;;;;;8.95;7.28;;;23.60;67.90;;;;;;10259658;28;20051;-63
2022/06/25 05:38:28;;;;;;;9.10;7.38;;;23.60;68.00;;;;;;10269871;28;20039;-64
2022/06/25 05:43:29;;;;;;;9.32;6.57;;;23.60;68.10;;;;;;10282595;28;20560;-63
2022/06/25 05:48:30;;;;;;;11.90;6.35;;;23.60;67.90;;;;;;10281079;28;20118;-61
2022/06/25 05:53:30;;;;;;;10.00;5.68;;;23.60;67.90;;;;;;10255463;28;20458;-63
2022/06/25 05:58:31;;;;;;;5.78;3.50;;;23.60;67.80;;;;;;10281848;28;20544;-63
2022/06/25 06:03:32;;;;;;;5.90;4.20;;;23.60;68.30;;;;;;10275152;28;20582;-64
2022/06/25 06:08:33;;;;;;;7.72;5.07;;;23.50;67.30;;;;;;10249014;28;20039;-62
2022/06/25 06:13:33;;;;;;;5.45;3.65;;;23.50;67.20;;;;;;10280046;28;20041;-63
2022/06/25 06:18:34;;;;;;;7.63;3.70;;;23.50;66.90;;;;;;10267281;28;20575;-63
2022/06/25 06:23:35;;;;;;;9.52;3.50;;;23.50;66.30;;;;;;10285620;28;20161;-63
2022/06/25 06:28:35;;;;;;;10.45;4.25;;;23.50;66.10;;;;;;10283304;28;20129;-61
2022/06/25 06:33:36;;;;;;;12.25;4.30;;;23.40;66.00;;;;;;10288819;28;20101;-60
2022/06/25 06:38:38;;;;;;;10.77;3.15;;;23.40;65.50;;;;;;10271489;28;20037;-61
2022/06/25 06:43:39;;;;;;;8.52;3.35;;;23.40;65.40;;;;;;10278719;28;20114;-61
2022/06/25 06:48:41;;;;;;;3.75;2.03;;;23.40;65.60;;;;;;10252137;28;20433;-61
2022/06/25 06:53:41;;;;;;;10.88;3.08;;;23.40;65.70;;;;;;10272851;28;20117;-61
2022/06/25 06:58:42;;;;;;;4.43;2.20;;;23.40;65.70;;;;;;10289453;28;20127;-61
2022/06/25 07:03:43;;;;;;;5.38;2.80;;;23.40;65.70;;;;;;10287635;28;20069;-61
2022/06/25 07:08:43;;;;;;;6.25;2.53;;;23.40;65.40;;;;;;10286172;28;20043;-61
2022/06/25 07:13:44;;;;;;;4.50;2.50;;;23.50;65.40;;;;;;10262878;28;20097;-61
2022/06/25 07:18:45;;;;;;;4.75;2.58;;;23.50;65.40;;;;;;10289522;28;20035;-61
2022/06/25 07:23:46;;;;;;;4.28;2.92;;;23.50;65.40;;;;;;10261041;28;20034;-61
2022/06/25 07:28:46;;;;;;;4.47;2.33;;;23.50;65.40;;;;;;10288846;28;20031;-62
2022/06/25 07:33:48;;;;;;;4.40;2.42;;;23.50;65.40;;;;;;10283262;28;20058;-60
2022/06/25 07:38:49;;;;;;;4.43;2.78;;;23.50;65.50;;;;;;10288999;28;20390;-62
2022/06/25 07:43:49;;;;;;;4.75;2.58;;;23.50;65.40;;;;;;10283456;28;20030;-61
2022/06/25 07:48:50;;;;;;;4.13;2.20;;;23.50;65.30;;;;;;10251575;28;20050;-62
2022/06/25 07:53:51;;;;;;;3.20;2.17;;;23.50;65.30;;;;;;10282190;28;20035;-61
2022/06/25 07:58:51;;;;;;;4.70;2.53;;;23.60;65.40;;;;;;10271416;28;20027;-60
2022/06/25 08:03:52;;;;;;;3.47;2.20;;;23.60;65.40;;;;;;10266250;28;20054;-61
2022/06/25 08:08:54;;;;;;;3.05;2.30;;;23.50;65.50;;;;;;10288763;28;20043;-61
2022/06/25 08:13:54;;;;;;;6.30;2.70;;;23.50;65.30;;;;;;10287485;28;20494;-60
2022/06/25 08:18:55;;;;;;;3.28;1.83;;;23.60;65.40;;;;;;10288307;28;20054;-61
2022/06/25 08:23:56;;;;;;;4.43;2.38;;;23.50;65.20;;;;;;10286979;28;20042;-61
2022/06/25 08:28:57;;;;;;;4.47;2.50;;;23.50;65.10;;;;;;10286667;28;20090;-61
2022/06/25 08:33:58;;;;;;;2.85;2.20;;;23.50;65.20;;;;;;10264472;28;20056;-61
2022/06/25 08:38:58;;;;;;;2.50;1.90;;;23.50;65.10;;;;;;10261243;28;20497;-61
2022/06/25 08:43:59;;;;;;;3.92;2.38;;;23.50;65.60;;;;;;10287773;28;20058;-60
2022/06/25 08:49:00;;;;;;;3.22;2.17;;;23.50;65.80;;;;;;10273866;28;20035;-61
2022/06/25 08:54:02;;;;;;;2.28;1.55;;;23.50;66.00;;;;;;10268142;28;20035;-60
2022/06/25 08:59:03;;;;;;;3.60;1.73;;;23.50;66.10;;;;;;10268680;28;20370;-61
2022/06/25 09:04:04;;;;;;;2.45;1.83;;;23.50;65.70;;;;;;10267920;28;20039;-62
2022/06/25 09:09:13;;;;;;;3.10;1.58;;;23.50;65.80;;;;;;10276391;28;20122;-61
2022/06/25 09:14:29;;;;;;;2.28;2.03;;;23.50;66.00;;;;;;10255962;28;20612;-63
2022/06/25 09:19:36;;;;;;;2.47;1.88;;;23.40;65.80;;;;;;10268725;28;20039;-60
2022/06/25 09:24:50;;;;;;;3.38;1.92;;;23.40;66.00;;;;;;10245282;28;20484;-60
2022/06/25 09:29:51;;;;;;;3.30;1.95;;;23.40;66.00;;;;;;10253409;28;20049;-61
2022/06/25 09:34:52;;;;;;;2.22;1.60;;;23.40;66.20;;;;;;10263202;28;20050;-61
2022/06/25 09:39:55;;;;;;;4.07;1.85;;;23.40;66.00;;;;;;10268414;28;20094;-61
2022/06/25 09:45:12;;;;;;;2.88;2.10;;;23.40;65.90;;;;;;10275468;28;20544;-61
2022/06/25 09:50:14;;;;;;;2.55;1.75;;;23.40;65.90;;;;;;10276383;28;20047;-61
2022/06/25 09:55:14;;;;;;;2.90;1.80;;;23.40;66.00;;;;;;10278430;28;20031;-62
2022/06/25 10:00:17;;;;;;;4.85;2.28;;;23.40;65.90;;;;;;10287045;28;20446;-61
2022/06/25 10:05:46;;;;;;;2.55;2.00;;;23.40;65.80;;;;;;10280894;28;20118;-61
2022/06/25 10:10:48;;;;;;;4.80;2.25;;;23.40;66.50;;;;;;10285821;28;20044;-61
2022/06/25 10:15:49;;;;;;;4.15;2.42;;;23.40;66.00;;;;;;10269806;28;20376;-61
2022/06/25 10:20:51;;;;;;;2.20;1.77;;;23.40;65.80;;;;;;10235935;29;20434;-61
2022/06/25 10:25:52;;;;;;;3.85;1.90;;;23.40;66.00;;;;;;10251653;29;20039;-62
2022/06/25 10:30:56;;;;;;;2.60;2.10;;;23.40;66.30;;;;;;10282433;28;20030;-61
2022/06/25 10:36:04;;;;;;;1.70;1.20;;;23.40;66.20;;;;;;10287024;28;20054;-61
2022/06/25 10:46:32;;;;;;;2.83;1.58;;;23.40;66.00;;;;;;10280925;28;20039;-60
2022/06/25 10:51:51;;;;;;;2.80;2.13;;;23.40;65.90;;;;;;10271741;28;20090;-60
2022/06/25 10:56:58;;;;;;;3.60;1.80;;;23.40;66.20;;;;;;10275720;28;20027;-61
2022/06/25 11:02:03;;;;;;;2.45;1.60;;;23.40;66.20;;;;;;10290189;28;20113;-61
2022/06/25 11:07:18;;;;;;;3.42;2.65;;;23.40;66.00;;;;;;10286864;28;20038;-59
2022/06/25 11:12:20;;;;;;;5.47;2.70;;;23.40;66.30;;;;;;10263062;28;20064;-62
2022/06/25 11:17:23;;;;;;;5.07;2.47;;;23.40;66.80;;;;;;10289829;28;20031;-61
2022/06/25 11:22:24;;;;;;;4.32;2.50;;;23.40;67.00;;;;;;10289749;28;20558;-61
2022/06/25 11:33:06;;;;;;;3.25;2.38;;;23.40;67.10;;;;;;10313863;28;20050;-63
2022/06/25 11:38:21;;;;;;;3.25;2.60;;;23.50;66.60;;;;;;10272067;28;20097;-64
2022/06/25 11:43:26;;;;;;;4.63;2.45;;;23.40;66.80;;;;;;10253421;28;20039;-63
2022/06/25 11:48:29;;;;;;;4.03;2.80;;;23.40;66.40;;;;;;10261659;28;20023;-63
2022/06/25 11:53:34;;;;;;;4.07;2.85;;;23.40;66.30;;;;;;10257490;28;20046;-63
2022/06/25 11:58:40;;;;;;;4.50;2.20;;;23.50;66.40;;;;;;10252701;28;20081;-62
2022/06/25 12:03:41;;;;;;;3.58;2.70;;;23.50;66.30;;;;;;10264349;28;20533;-62
2022/06/25 12:08:42;;;;;;;3.40;2.53;;;23.50;66.20;;;;;;10268322;28;20031;-63
2022/06/25 12:13:43;;;;;;;3.28;2.60;;;23.50;66.10;;;;;;10249346;28;20038;-63
2022/06/25 12:18:44;;;;;;;3.60;2.53;;;23.50;66.20;;;;;;10255201;28;20050;-62
2022/06/25 12:23:56;;;;;;;2.88;2.20;;;23.50;66.00;;;;;;10287000;28;20093;-63
2022/06/25 12:29:14;;;;;;;2.90;2.22;;;23.50;66.10;;;;;;10288538;28;20430;-61
2022/06/25 12:34:15;;;;;;;3.35;2.33;;;23.50;66.30;;;;;;10287088;28;20049;-61
2022/06/25 12:39:31;;;;;;;3.80;2.63;;;23.50;66.30;;;;;;10286997;28;20019;-62
2022/06/25 12:44:34;;;;;;;2.75;2.33;;;23.50;66.20;;;;;;10257217;28;20071;-62
2022/06/25 12:49:57;;;;;;;2.88;2.00;;;23.50;66.20;;;;;;10261686;28;20031;-62
2022/06/25 12:54:57;;;;;;;2.33;2.10;;;23.60;66.10;;;;;;10278351;28;20130;-62
2022/06/25 13:00:03;;;;;;;2.85;2.33;;;23.50;66.10;;;;;;10266538;28;20041;-63
2022/06/25 13:05:04;;;;;;;3.30;2.45;;;23.60;66.10;;;;;;10259436;28;20363;-62
2022/06/25 13:10:06;;;;;;;5.28;2.60;;;23.60;66.20;;;;;;10277204;28;20114;-62
2022/06/25 13:15:08;;;;;;;4.47;2.67;;;23.60;66.70;;;;;;10277941;28;20161;-63
2022/06/25 13:20:11;;;;;;;4.28;2.20;;;23.60;66.60;;;;;;10280113;28;20034;-63
2022/06/25 13:25:12;;;;;;;2.40;2.00;;;23.60;66.20;;;;;;10268218;28;20031;-62
2022/06/25 13:30:13;;;;;;;2.63;2.13;;;23.50;66.10;;;;;;10265688;28;20409;-64
2022/06/25 13:35:14;;;;;;;2.40;2.15;;;23.50;66.40;;;;;;10279019;28;20071;-61
2022/06/25 13:40:15;;;;;;;3.15;2.55;;;23.50;68.10;;;;;;10282436;28;20081;-64
2022/06/25 13:45:16;;;;;;;3.72;2.63;;;23.50;66.50;;;;;;10281690;28;20045;-63
2022/06/25 13:50:16;;;;;;;5.03;2.13;;;23.50;66.40;;;;;;10275612;28;20034;-63
2022/06/25 13:55:17;;;;;;;2.70;2.28;;;23.50;66.20;;;;;;10278698;28;20023;-63
2022/06/25 14:00:18;;;;;;;3.97;1.80;;;23.50;67.10;;;;;;10263139;28;20030;-64
2022/06/25 14:05:18;;;;;;;2.38;1.92;;;23.50;67.00;;;;;;10281525;28;20030;-64
2022/06/25 14:10:19;;;;;;;2.28;2.00;;;23.40;66.30;;;;;;10280839;28;20493;-64
2022/06/25 14:15:20;;;;;;;4.35;1.77;;;23.50;66.00;;;;;;10281326;28;20023;-64
2022/06/25 14:20:21;;;;;;;2.47;2.10;;;23.50;66.00;;;;;;10278609;28;20062;-63
2022/06/25 14:25:23;;;;;;;3.20;2.35;;;23.40;66.80;;;;;;10278642;28;20174;-64
2022/06/25 14:30:26;;;;;;;3.38;1.92;;;23.40;66.70;;;;;;10289300;28;20034;-64
2022/06/25 14:35:27;;;;;;;2.55;2.22;;;23.40;66.70;;;;;;10256748;28;20053;-64
2022/06/25 14:45:48;;;;;;;3.17;2.35;;;23.40;66.70;;;;;;10253015;29;20510;-63
2022/06/25 14:50:49;;;;;;;3.85;1.90;;;23.50;66.90;;;;;;10254515;28;20031;-65
2022/06/25 14:55:50;;;;;;;2.47;1.92;;;23.40;67.00;;;;;;10247869;28;20038;-64
2022/06/25 15:00:50;;;;;;;3.60;2.42;;;23.40;66.70;;;;;;10270514;28;20033;-64
2022/06/25 15:05:52;;;;;;;2.53;1.75;;;23.40;66.80;;;;;;10290389;28;20039;-64
2022/06/25 15:10:53;;;;;;;2.83;1.70;;;23.40;67.10;;;;;;10273543;28;20489;-67
2022/06/25 15:15:54;;;;;;;2.85;1.80;;;23.40;66.90;;;;;;10289801;28;20047;-64
2022/06/25 15:20:55;;;;;;;2.42;1.83;;;23.40;67.00;;;;;;10274742;28;20418;-64
2022/06/25 15:25:55;;;;;;;3.10;2.47;;;23.40;67.10;;;;;;10276124;28;20070;-64
2022/06/25 15:30:56;;;;;;;3.03;2.47;;;23.40;67.40;;;;;;10266664;28;20027;-63
2022/06/25 15:35:57;;;;;;;2.97;2.10;;;23.40;68.50;;;;;;10275351;28;20051;-64
2022/06/25 15:40:58;;;;;;;3.08;2.08;;;23.50;68.60;;;;;;10284069;28;20035;-64
2022/06/25 15:45:58;;;;;;;3.33;2.45;;;23.40;68.50;;;;;;10289925;28;20121;-65
2022/06/25 15:50:59;;;;;;;6.03;2.67;;;23.50;68.90;;;;;;10255745;28;20406;-64
2022/06/25 15:56:00;;;;;;;4.85;3.00;;;23.50;68.80;;;;;;10288706;28;20045;-65
2022/06/25 16:01:01;;;;;;;5.15;3.20;;;23.60;68.70;;;;;;10276368;28;20089;-67
2022/06/25 16:06:01;;;;;;;22.65;12.80;;;23.70;69.90;;;;;;10268266;28;20125;-62
2022/06/25 16:11:30;;;;;;;12.98;6.63;;;23.80;70.50;;;;;;10247807;28;20095;-63
2022/06/25 16:16:23;;;;;;;10.80;5.72;;;23.90;70.90;;;;;;10262493;28;20145;-64
2022/06/25 16:21:24;;;;;;;8.50;5.30;;;24.00;69.60;;;;;;10287051;28;20035;-64
2022/06/25 16:26:24;;;;;;;9.43;4.47;;;23.90;69.90;;;;;;10278509;28;20409;-63
2022/06/25 16:31:25;;;;;;;6.93;4.88;;;23.90;70.30;;;;;;10270198;28;20470;-65
2022/06/25 16:36:26;;;;;;;6.32;4.22;;;23.80;70.30;;;;;;10277732;28;20093;-65
2022/06/25 16:41:28;;;;;;;5.50;3.95;;;23.80;70.20;;;;;;10283178;28;20057;-64
2022/06/25 16:46:47;;;;;;;6.28;4.32;;;23.80;70.30;;;;;;10282264;28;20049;-62
2022/06/25 16:51:50;;;;;;;;;;;23.80;70.00;;;;;;10281036;28;20077;-62
2022/06/25 16:56:53;;;;;;;5.70;3.50;;;23.80;69.60;;;;;;10276747;28;19999;-63
2022/06/25 17:01:54;;;;;;;6.55;3.60;;;23.70;69.60;;;;;;10280252;28;20796;-62
2022/06/25 17:06:55;;;;;;;4.28;3.10;;;23.70;69.60;;;;;;10263482;28;20019;-62
2022/06/25 17:11:55;;;;;;;6.28;3.20;;;23.70;69.60;;;;;;10283089;28;20031;-64
2022/06/25 17:16:56;;;;;;;5.20;3.28;;;23.60;69.50;;;;;;10266317;28;20434;-62
2022/06/25 17:21:57;;;;;;;3.80;3.00;;;23.60;69.30;;;;;;10265959;28;20047;-63
2022/06/25 17:26:57;;;;;;;4.97;3.05;;;23.60;69.30;;;;;;10280258;28;20758;-63
2022/06/25 17:31:58;;;;;;;4.43;2.80;;;23.60;69.20;;;;;;10276791;28;20050;-62
2022/06/25 17:36:59;;;;;;;3.42;2.92;;;23.60;69.10;;;;;;10281827;28;20122;-62
2022/06/25 17:42:02;;;;;;;3.00;2.40;;;23.60;69.00;;;;;;10283264;28;20042;-61
2022/06/25 17:47:03;;;;;;;3.45;2.50;;;23.60;69.10;;;;;;10257179;28;20062;-62
2022/06/25 17:52:05;;;;;;;5.10;3.00;;;23.60;69.10;;;;;;10279283;28;20118;-60
2022/06/25 17:57:06;;;;;;;3.50;2.25;;;23.60;69.10;;;;;;10250082;28;20039;-62
2022/06/25 18:02:07;;;;;;;5.50;3.40;;;23.60;69.20;;;;;;10272610;28;20065;-62
2022/06/25 18:07:08;;;;;;;4.72;2.90;;;23.60;69.10;;;;;;10272764;28;20150;-63
2022/06/25 18:12:09;;;;;;;3.25;2.45;;;23.60;69.10;;;;;;10269196;28;20126;-62
2022/06/25 18:17:10;;;;;;;6.95;2.80;;;23.60;69.10;;;;;;10280753;28;20042;-62
2022/06/25 18:22:10;;;;;;;4.60;2.80;;;23.60;69.00;;;;;;10261912;28;20035;-63
2022/06/25 18:27:11;;;;;;;6.03;2.97;;;23.60;68.80;;;;;;10285395;28;20089;-63
2022/06/25 18:32:12;;;;;;;6.72;2.90;;;23.60;68.70;;;;;;10287860;28;20110;-62
2022/06/25 18:37:13;;;;;;;4.57;2.70;;;23.60;68.60;;;;;;10281746;28;20034;-62
2022/06/25 18:42:13;;;;;;;4.68;3.42;;;23.60;68.60;;;;;;10285024;28;20023;-62
2022/06/25 18:47:14;;;;;;;6.20;3.13;;;23.60;68.50;;;;;;10281039;28;20027;-62
2022/06/25 18:52:15;;;;;;;6.72;3.78;;;23.50;68.50;;;;;;10273016;28;20066;-63
2022/06/25 18:57:16;;;;;;;8.82;2.88;;;23.60;68.80;;;;;;10264513;28;20031;-63
2022/06/25 19:02:16;;;;;;;5.40;3.10;;;23.60;69.00;;;;;;10287127;28;20046;-62
2022/06/25 19:07:17;;;;;;;3.72;2.55;;;23.60;69.10;;;;;;10286073;28;20549;-63
2022/06/25 19:12:18;;;;;;;4.90;3.10;;;23.60;69.10;;;;;;10269976;28;20058;-61
2022/06/25 19:17:19;;;;;;;6.85;3.08;;;23.60;69.30;;;;;;10271819;28;20031;-62
2022/06/25 19:22:19;;;;;;;6.47;3.38;;;23.60;69.30;;;;;;10262040;28;20366;-62
2022/06/25 19:27:20;;;;;;;4.13;3.20;;;23.60;69.10;;;;;;10253966;28;20046;-62
2022/06/25 19:32:21;;;;;;;3.83;3.30;;;23.60;69.10;;;;;;10271879;28;20109;-62
2022/06/25 19:37:22;;;;;;;5.30;3.13;;;23.60;69.20;;;;;;10283186;28;20467;-62
2022/06/25 19:42:22;;;;;;;5.28;3.40;;;23.60;69.10;;;;;;10278164;28;20117;-62
2022/06/25 19:47:23;;;;;;;5.50;3.20;;;23.60;69.20;;;;;;10287671;28;20114;-62
2022/06/25 19:52:24;;;;;;;6.35;2.78;;;23.60;69.10;;;;;;10250912;28;20043;-61
2022/06/25 19:57:25;;;;;;;5.38;3.08;;;23.60;69.20;;;;;;10260187;28;20031;-61
2022/06/25 20:02:26;;;;;;;4.55;2.63;;;23.50;69.00;;;;;;10264491;28;20035;-62
2022/06/25 20:07:26;;;;;;;5.78;2.75;;;23.60;69.10;;;;;;10274481;28;20402;-62
2022/06/25 20:12:27;;;;;;;6.05;3.38;;;23.60;69.20;;;;;;10286216;28;20038;-61
2022/06/25 20:17:28;;;;;;;4.38;2.20;;;23.50;69.10;;;;;;10278917;28;20035;-59
2022/06/25 20:22:29;;;;;;;3.30;2.75;;;23.50;69.00;;;;;;10246618;28;20368;-62
2022/06/25 20:27:30;;;;;;;4.07;2.70;;;23.50;68.90;;;;;;10265651;28;20166;-59
2022/06/25 20:32:31;;;;;;;1.92;1.52;;;23.50;68.50;;;;;;10250295;28;20039;-60
2022/06/25 20:37:32;;;;;;;4.82;1.60;;;23.50;68.70;;;;;;10247602;29;20020;-59
2022/06/25 20:42:32;;;;;;;3.83;1.38;;;23.50;68.60;;;;;;10284672;28;20433;-59
2022/06/25 20:47:33;;;;;;;2.92;1.70;;;23.50;68.50;;;;;;10274370;28;20039;-59
2022/06/25 20:52:34;;;;;;;2.13;1.52;;;23.50;68.40;;;;;;10256874;28;20057;-59
2022/06/25 20:57:35;;;;;;;2.13;1.92;;;23.50;68.30;;;;;;10262472;28;20031;-60
2022/06/25 21:08:06;;;;;;;2.35;1.65;;;23.50;68.20;;;;;;10267360;28;20044;-59
2022/06/25 21:13:07;;;;;;;3.67;1.80;;;23.50;68.20;;;;;;10285514;28;20310;-59
2022/06/25 21:18:09;;;;;;;2.70;1.90;;;23.40;68.10;;;;;;10286367;28;20632;-61
2022/06/25 21:23:11;;;;;;;1.98;1.67;;;23.40;68.00;;;;;;10273065;28;20019;-59
2022/06/25 21:28:12;;;;;;;2.25;2.00;;;23.50;68.00;;;;;;10285143;28;20074;-59
2022/06/25 21:33:13;;;;;;;2.78;1.80;;;23.40;68.00;;;;;;10284316;28;20118;-58
2022/06/25 21:38:13;;;;;;;3.63;2.28;;;23.50;68.00;;;;;;10291327;28;20113;-61
2022/06/25 21:43:14;;;;;;;5.22;1.63;;;23.40;67.90;;;;;;10279580;28;20433;-60
2022/06/25 21:48:15;;;;;;;3.15;2.25;;;23.40;67.90;;;;;;10289222;28;20101;-60
2022/06/25 21:53:16;;;;;;;3.65;1.75;;;23.40;67.90;;;;;;10293332;28;20041;-59
2022/06/25 21:58:17;;;;;;;3.17;1.55;;;23.40;67.90;;;;;;10257570;28;20043;-60
2022/06/25 22:03:17;;;;;;;1.80;1.63;;;23.40;67.90;;;;;;10292034;28;20038;-59
2022/06/25 22:08:20;;;;;;;2.08;1.60;;;23.40;67.90;;;;;;10263779;28;20034;-59
2022/06/25 22:13:20;;;;;;;2.53;1.75;;;23.40;67.90;;;;;;10281439;28;20101;-59
2022/06/25 22:18:22;;;;;;;4.07;2.15;;;23.40;67.90;;;;;;10266929;28;20533;-60
2022/06/25 22:23:29;;;;;;;2.10;1.75;;;23.40;67.80;;;;;;10264147;28;20126;-60
2022/06/25 22:28:30;;;;;;;3.95;2.33;;;23.40;67.90;;;;;;10275549;28;20031;-60
2022/06/25 22:33:31;;;;;;;2.40;2.20;;;23.30;67.70;;;;;;10292302;28;20582;-60
2022/06/25 22:38:31;;;;;;;2.47;1.90;;;23.40;67.80;;;;;;10284149;28;20034;-59
2022/06/25 22:43:32;;;;;;;2.47;1.75;;;23.40;67.80;;;;;;10268126;28;20375;-59
2022/06/25 22:48:33;;;;;;;3.08;2.33;;;23.30;67.70;;;;;;10263820;28;20027;-59
2022/06/25 22:53:33;;;;;;;2.03;1.83;;;23.30;67.70;;;;;;10277406;28;20031;-60
2022/06/25 22:58:34;;;;;;;3.20;1.90;;;23.30;67.80;;;;;;10251345;28;20118;-59
2022/06/25 23:03:35;;;;;;;4.10;2.60;;;23.30;67.80;;;;;;10278167;28;20027;-59
2022/06/25 23:08:36;;;;;;;2.20;2.00;;;23.30;67.80;;;;;;10274654;28;20062;-59
2022/06/25 23:13:37;;;;;;;2.13;1.80;;;23.30;67.80;;;;;;10264969;28;20066;-60
2022/06/25 23:18:37;;;;;;;2.13;1.75;;;23.30;67.80;;;;;;10280343;28;20398;-60
2022/06/25 23:23:38;;;;;;;2.15;1.88;;;23.30;67.80;;;;;;10273897;28;20553;-59
2022/06/25 23:28:39;;;;;;;3.60;2.00;;;23.30;67.70;;;;;;10257870;28;20027;-60
2022/06/25 23:33:40;;;;;;;2.10;1.90;;;23.30;68.30;;;;;;10268563;28;20111;-59
2022/06/25 23:38:42;;;;;;;2.17;1.98;;;23.30;67.70;;;;;;10289823;28;20042;-59
2022/06/25 23:43:42;;;;;;;2.20;1.88;;;23.30;67.70;;;;;;10274076;28;20829;-59
2022/06/25 23:48:43;;;;;;;2.28;1.80;;;23.30;67.70;;;;;;10279464;28;20043;-59
2022/06/25 23:53:44;;;;;;;2.17;1.92;;;23.30;67.70;;;;;;10289200;28;20455;-60
2022/06/25 23:58:44;;;;;;;2.60;1.83;;;23.30;67.70;;;;;;10288615;28;20117;-59
